Manchester, New Hampshire
Current Conditions -  °F | °C
As of 6:53 PM on Saturday 20 Dec 2014 (Local Time) from KMHT Reporting Station
Overcast Overcast  
Wind Chill: 27°   Ceiling: 3400
Heat Index: 32°   Visibility: 10mi
Dew Point: 24°   Wind: 5mph
Humidity: 73%   Direction: 50°NE
Pressure: 30.3"   Gusts: NA
Location:  42.99°N, 71.46°W
Report Text: KMHT 202353Z 05004KT 10SM OVC034 00/M04 A3030 RMK AO2 SLP280 T00001044 10011 20000 53012
Loading
Personal Weather Stations






























Interactive Weather Map New forecast layout! Learn more

10-Day Weather Forecast

Advertisements
Track Severe Weather on mobile